createdAt,value
2022-09-27T00:01:29.580Z,11.08
2022-09-27T00:04:00.555Z,11.04
2022-09-27T00:06:32.780Z,10.97
2022-09-27T00:09:02.530Z,11.03
2022-09-27T00:11:35.445Z,10.99
2022-09-27T00:14:07.460Z,10.98
2022-09-27T00:16:39.494Z,10.91
2022-09-27T00:19:15.658Z,10.82
2022-09-27T00:21:47.422Z,10.82
2022-09-27T00:24:20.257Z,10.86
2022-09-27T00:26:50.722Z,10.75
2022-09-27T00:29:21.500Z,10.77
2022-09-27T00:31:51.367Z,11.03
2022-09-27T00:34:23.461Z,10.95
2022-09-27T00:36:55.394Z,10.92
2022-09-27T00:39:25.677Z,10.77
2022-09-27T00:41:55.390Z,10.88
2022-09-27T00:44:34.375Z,10.88
2022-09-27T00:47:32.361Z,10.64
2022-09-27T00:50:27.158Z,10.64
2022-09-27T00:52:59.950Z,10.72
2022-09-27T00:55:35.279Z,10.84
2022-09-27T00:58:05.974Z,10.85
2022-09-27T01:00:37.965Z,10.96
2022-09-27T01:03:11.349Z,11.02
2022-09-27T01:05:41.706Z,10.85
2022-09-27T01:08:13.348Z,10.90
2022-09-27T01:10:46.376Z,10.69
2022-09-27T01:13:26.154Z,10.85
2022-09-27T01:16:01.458Z,10.72
2022-09-27T01:18:46.113Z,10.67
2022-09-27T01:21:36.481Z,10.67
2022-09-27T01:24:26.225Z,10.58
2022-09-27T01:27:16.960Z,10.67
2022-09-27T01:30:13.767Z,10.67
2022-09-27T01:33:01.995Z,10.63
2022-09-27T01:35:40.786Z,10.79
2022-09-27T01:38:22.037Z,10.94
2022-09-27T01:40:57.205Z,10.71
2022-09-27T01:43:43.290Z,10.89
2022-09-27T01:49:05.192Z,10.81
2022-09-27T01:51:50.122Z,10.74
2022-09-27T01:54:22.764Z,10.90
2022-09-27T01:57:05.181Z,10.72
2022-09-27T01:59:48.268Z,10.74
2022-09-27T02:02:22.188Z,10.72
2022-09-27T02:05:14.198Z,10.73
2022-09-27T02:07:47.157Z,10.76
2022-09-27T02:10:20.899Z,10.67
2022-09-27T02:13:01.149Z,10.88
2022-09-27T02:15:33.730Z,10.74
2022-09-27T02:18:10.963Z,10.71
2022-09-27T02:20:43.270Z,10.86
2022-09-27T02:23:18.727Z,10.82
2022-09-27T02:25:53.625Z,10.61
2022-09-27T02:28:40.781Z,10.82
2022-09-27T02:31:11.349Z,10.65
2022-09-27T02:33:50.123Z,10.47
2022-09-27T02:36:21.338Z,10.47
2022-09-27T02:38:51.405Z,10.66
2022-09-27T02:41:23.823Z,10.34
2022-09-27T02:44:02.650Z,10.60
2022-09-27T02:46:59.659Z,10.34
2022-09-27T02:49:34.829Z,10.43
2022-09-27T02:52:37.513Z,10.44
2022-09-27T02:55:19.722Z,10.43
2022-09-27T02:58:37.210Z,10.24
2022-09-27T03:01:26.609Z,10.29
2022-09-27T03:04:21.721Z,10.37
2022-09-27T03:06:53.383Z,10.37
2022-09-27T03:09:29.308Z,10.30
2022-09-27T03:11:58.821Z,10.30
2022-09-27T03:14:28.624Z,10.37
2022-09-27T03:17:00.131Z,10.31
2022-09-27T03:19:31.940Z,10.21
2022-09-27T03:22:06.760Z,10.18
2022-09-27T03:24:36.609Z,10.34
2022-09-27T03:27:06.733Z,10.30
2022-09-27T03:29:36.706Z,10.24
2022-09-27T03:32:08.377Z,10.35
2022-09-27T03:34:55.311Z,10.34
2022-09-27T03:37:26.595Z,10.09
2022-09-27T03:39:56.515Z,10.00
2022-09-27T03:42:26.413Z,10.01
2022-09-27T03:44:56.384Z,10.14
2022-09-27T03:47:26.207Z,10.19
2022-09-27T03:49:55.956Z,10.02
2022-09-27T03:52:25.580Z,9.98
2022-09-27T03:54:59.718Z,9.93
2022-09-27T03:57:26.761Z,10.04
2022-09-27T03:59:56.512Z,9.94
2022-09-27T04:02:43.568Z,9.85
2022-09-27T04:05:28.737Z,9.91
2022-09-27T04:08:00.453Z,10.01
2022-09-27T04:10:30.458Z,9.89
2022-09-27T04:13:00.427Z,9.76
2022-09-27T04:15:31.943Z,9.64
2022-09-27T04:18:19.022Z,9.78
2022-09-27T04:21:05.676Z,9.91
2022-09-27T04:23:36.546Z,9.91
2022-09-27T04:26:06.565Z,9.99
2022-09-27T04:28:43.703Z,9.95
2022-09-27T04:31:13.969Z,9.88
2022-09-27T04:33:51.213Z,9.88
2022-09-27T04:36:29.410Z,10.11
2022-09-27T04:39:09.314Z,10.16
2022-09-27T04:41:40.786Z,10.27
2022-09-27T04:44:11.633Z,10.17
2022-09-27T04:46:42.853Z,9.99
2022-09-27T04:49:13.430Z,9.69
2022-09-27T04:51:43.326Z,9.69
2022-09-27T04:54:13.357Z,9.86
2022-09-27T04:56:44.753Z,9.86
2022-09-27T04:59:14.883Z,9.94
2022-09-27T05:01:45.351Z,9.94
2022-09-27T05:04:23.375Z,9.71
2022-09-27T05:06:57.046Z,9.71
2022-09-27T05:09:29.566Z,9.51
2022-09-27T05:11:59.366Z,9.56
2022-09-27T05:14:37.266Z,9.51
2022-09-27T05:17:14.851Z,9.51
2022-09-27T05:20:03.170Z,9.56
2022-09-27T05:22:34.838Z,9.48
2022-09-27T05:25:06.362Z,9.48
2022-09-27T05:27:36.391Z,9.71
2022-09-27T05:30:08.261Z,9.71
2022-09-27T05:32:45.449Z,9.70
2022-09-27T05:35:19.999Z,9.70
2022-09-27T05:37:58.467Z,9.64
2022-09-27T05:40:41.386Z,9.71
2022-09-27T05:43:01.708Z,9.63
2022-09-27T05:45:31.489Z,9.70
2022-09-27T05:48:03.249Z,9.51
2022-09-27T05:50:33.750Z,9.49
2022-09-27T05:53:03.483Z,9.67
2022-09-27T05:55:33.591Z,9.64
2022-09-27T05:58:05.733Z,9.54
2022-09-27T06:00:39.978Z,9.76
2022-09-27T06:03:14.116Z,9.72
2022-09-27T06:05:58.077Z,9.70
2022-09-27T06:08:37.210Z,9.70
2022-09-27T06:11:12.559Z,9.71
2022-09-27T06:13:42.624Z,9.90
2022-09-27T06:16:16.151Z,9.83
2022-09-27T06:18:47.541Z,9.77
2022-09-27T06:21:18.313Z,9.59
2022-09-27T06:23:54.085Z,9.80
2022-09-27T06:26:22.893Z,9.88
2022-09-27T06:28:57.469Z,9.93
2022-09-27T06:31:27.253Z,10.00
2022-09-27T06:34:04.748Z,9.99
2022-09-27T06:36:34.473Z,9.92
2022-09-27T06:39:04.486Z,9.92
2022-09-27T06:41:37.196Z,10.28
2022-09-27T06:44:26.575Z,9.98
2022-09-27T06:47:03.984Z,10.09
2022-09-27T06:49:51.255Z,10.20
2022-09-27T06:52:21.241Z,10.37
2022-09-27T06:54:50.971Z,10.24
2022-09-27T06:57:23.690Z,10.35
2022-09-27T07:00:11.277Z,10.72
2022-09-27T07:03:02.491Z,10.87
2022-09-27T07:05:33.784Z,11.35
2022-09-27T07:08:06.149Z,10.94
2022-09-27T07:10:37.718Z,10.94
2022-09-27T07:13:12.073Z,10.95
2022-09-27T07:15:43.302Z,10.93
2022-09-27T07:18:16.238Z,11.14
2022-09-27T07:20:46.027Z,11.08
2022-09-27T07:23:16.316Z,11.12
2022-09-27T07:25:46.124Z,10.98
2022-09-27T07:28:22.026Z,10.97
2022-09-27T07:30:52.751Z,10.95
2022-09-27T07:33:22.850Z,10.77
2022-09-27T07:35:52.858Z,10.77
2022-09-27T07:38:23.009Z,10.65
2022-09-27T07:40:53.477Z,10.91
2022-09-27T07:43:23.629Z,10.96
2022-09-27T07:45:55.368Z,10.92
2022-09-27T07:48:38.487Z,10.66
2022-09-27T07:51:22.757Z,10.68
2022-09-27T07:53:54.494Z,11.00
2022-09-27T07:56:29.296Z,11.23
2022-09-27T07:58:59.681Z,11.05
2022-09-27T08:01:29.485Z,11.05
2022-09-27T08:03:59.795Z,10.74
2022-09-27T08:06:30.873Z,10.58
2022-09-27T08:09:01.684Z,10.64
2022-09-27T08:11:33.020Z,10.64
2022-09-27T08:14:04.381Z,10.73
2022-09-27T08:16:35.601Z,10.73
2022-09-27T08:19:21.862Z,10.93
2022-09-27T08:21:59.047Z,11.11
2022-09-27T08:24:30.054Z,11.06
2022-09-27T08:27:11.825Z,11.19
2022-09-27T08:29:53.542Z,11.13
2022-09-27T08:32:24.756Z,11.05
2022-09-27T08:34:55.548Z,10.79
2022-09-27T08:37:25.805Z,10.99
2022-09-27T08:39:55.889Z,11.25
2022-09-27T08:42:41.075Z,11.25
2022-09-27T08:45:13.786Z,11.43
2022-09-27T08:47:50.271Z,11.12
2022-09-27T08:50:41.468Z,11.17
2022-09-27T08:53:30.779Z,11.74
2022-09-27T08:58:42.263Z,11.49
2022-09-27T09:01:16.849Z,11.16
2022-09-27T09:03:58.746Z,11.32
2022-09-27T09:06:43.201Z,10.90
2022-09-27T09:09:27.484Z,11.10
2022-09-27T09:12:40.690Z,11.87
2022-09-27T09:15:22.156Z,11.87
2022-09-27T09:18:05.023Z,11.72
2022-09-27T09:21:03.061Z,11.55
2022-09-27T09:23:47.754Z,11.36
2022-09-27T09:26:33.914Z,11.61
2022-09-27T09:29:39.337Z,11.34
2022-09-27T09:32:35.302Z,11.50
2022-09-27T09:35:10.157Z,11.25
2022-09-27T09:37:45.789Z,11.41
2022-09-27T09:40:22.690Z,11.59
2022-09-27T09:43:04.097Z,11.62
2022-09-27T09:45:36.925Z,11.74
2022-09-27T09:48:27.848Z,11.73
2022-09-27T09:51:01.356Z,11.50
2022-09-27T09:53:38.029Z,11.17
2022-09-27T09:56:11.257Z,11.06
2022-09-27T09:58:48.822Z,11.31
2022-09-27T10:01:23.558Z,11.07
2022-09-27T10:03:54.986Z,11.62
2022-09-27T10:06:26.055Z,11.63
2022-09-27T10:08:56.601Z,11.69
2022-09-27T10:11:45.032Z,11.70
2022-09-27T10:14:22.044Z,11.78
2022-09-27T10:17:02.326Z,11.83
2022-09-27T10:19:35.700Z,12.01
2022-09-27T10:22:24.963Z,11.75
2022-09-27T10:24:58.874Z,11.63
2022-09-27T10:27:52.621Z,11.63
2022-09-27T10:30:29.936Z,11.71
2022-09-27T10:33:05.736Z,11.69
2022-09-27T10:35:49.789Z,11.60
2022-09-27T10:38:24.222Z,11.72
2022-09-27T10:40:58.707Z,11.80
2022-09-27T10:43:34.987Z,11.79
2022-09-27T10:46:11.832Z,12.12
2022-09-27T10:48:42.942Z,12.47
2022-09-27T10:51:27.645Z,12.27
2022-09-27T10:53:59.763Z,12.13
2022-09-27T10:56:34.627Z,11.86
2022-09-27T10:59:05.926Z,12.13
2022-09-27T11:01:45.414Z,12.27
2022-09-27T11:04:34.297Z,11.94
2022-09-27T11:07:19.996Z,12.29
2022-09-27T11:10:05.730Z,12.21
2022-09-27T11:12:38.040Z,12.36
2022-09-27T11:15:10.565Z,12.26
2022-09-27T11:17:55.701Z,12.24
2022-09-27T11:20:34.056Z,12.24
2022-09-27T11:23:26.165Z,12.07
2022-09-27T11:25:59.875Z,12.11
2022-09-27T11:28:44.462Z,12.11
2022-09-27T11:31:19.680Z,12.01
2022-09-27T11:34:09.943Z,11.56
2022-09-27T11:36:53.659Z,11.56
2022-09-27T11:39:40.806Z,11.70
2022-09-27T11:42:23.833Z,11.87
2022-09-27T11:45:31.990Z,11.90
2022-09-27T11:47:42.793Z,11.89
2022-09-27T11:50:24.935Z,12.30
2022-09-27T11:53:06.333Z,12.04
2022-09-27T11:55:39.682Z,11.69
2022-09-27T11:58:21.141Z,11.31
2022-09-27T12:01:00.854Z,11.26
2022-09-27T12:03:50.382Z,11.30
2022-09-27T12:06:42.833Z,10.84
2022-09-27T12:09:21.848Z,10.84
2022-09-27T12:14:47.846Z,11.44
2022-09-27T12:17:23.895Z,11.35
2022-09-27T12:19:59.422Z,11.56
2022-09-27T12:22:58.075Z,11.45
2022-09-27T12:25:21.066Z,11.57
2022-09-27T12:27:57.683Z,11.34
2022-09-27T12:30:28.526Z,11.36
2022-09-27T12:33:07.268Z,11.08
2022-09-27T12:35:51.905Z,11.00
2022-09-27T12:38:30.086Z,11.06
2022-09-27T12:41:02.390Z,11.31
2022-09-27T12:43:34.715Z,11.26
2022-09-27T12:46:22.974Z,11.17
2022-09-27T12:49:25.559Z,11.26
2022-09-27T12:52:02.080Z,11.13
2022-09-27T12:57:30.821Z,11.15
2022-09-27T13:00:12.811Z,10.88
2022-09-27T13:03:16.783Z,11.41
2022-09-27T13:05:43.225Z,11.39
2022-09-27T13:08:23.988Z,11.81
2022-09-27T13:11:11.585Z,11.87
2022-09-27T13:13:41.934Z,11.83
2022-09-27T13:16:12.184Z,11.91
2022-09-27T13:18:52.981Z,11.81
2022-09-27T13:21:53.958Z,12.03
2022-09-27T13:24:41.509Z,12.09
2022-09-27T13:27:31.086Z,12.48
2022-09-27T13:30:15.993Z,11.79
2022-09-27T13:33:16.852Z,11.79
2022-09-27T13:36:20.401Z,12.24
2022-09-27T13:39:13.978Z,12.34
2022-09-27T13:41:52.723Z,12.34
2022-09-27T13:44:40.521Z,12.34
2022-09-27T13:47:16.441Z,12.34
2022-09-27T13:49:49.499Z,12.32
2022-09-27T13:52:26.489Z,12.49
2022-09-27T13:55:00.135Z,12.49
2022-09-27T13:57:43.103Z,12.71
2022-09-27T14:00:22.853Z,12.89
2022-09-27T14:03:16.677Z,13.19
2022-09-27T14:05:55.046Z,12.74
2022-09-27T14:08:43.109Z,13.16
2022-09-27T14:11:16.445Z,13.26
2022-09-27T14:13:49.246Z,13.19
2022-09-27T14:16:22.034Z,13.19
2022-09-27T14:18:56.780Z,13.37
2022-09-27T14:21:38.938Z,13.46
2022-09-27T14:24:30.982Z,13.56
2022-09-27T14:27:22.676Z,13.28
2022-09-27T14:30:01.121Z,13.49
2022-09-27T14:32:34.450Z,13.52
2022-09-27T14:35:37.477Z,13.40
2022-09-27T14:38:36.148Z,13.57
2022-09-27T14:40:47.920Z,13.23
2022-09-27T14:43:20.453Z,13.38
2022-09-27T14:45:53.043Z,13.59
2022-09-27T14:48:25.882Z,13.00
2022-09-27T14:51:05.063Z,13.12
2022-09-27T14:53:35.470Z,13.26
2022-09-27T14:56:08.176Z,13.21
2022-09-27T14:58:47.464Z,13.23
2022-09-27T15:01:12.594Z,13.00
2022-09-27T15:03:44.603Z,12.71
2022-09-27T15:06:13.920Z,12.75
2022-09-27T15:08:46.322Z,12.56
2022-09-27T15:11:17.972Z,12.47
2022-09-27T15:13:51.655Z,12.41
2022-09-27T15:16:24.389Z,12.55
2022-09-27T15:19:03.639Z,12.47
2022-09-27T15:21:38.882Z,12.49
2022-09-27T15:24:29.427Z,12.75
2022-09-27T15:26:59.152Z,12.88
2022-09-27T15:29:29.524Z,12.75
2022-09-27T15:32:10.463Z,12.56
2022-09-27T15:34:40.302Z,12.63
2022-09-27T15:37:13.070Z,12.57
2022-09-27T15:39:43.322Z,12.64
2022-09-27T15:42:16.005Z,12.83
2022-09-27T15:44:53.763Z,12.91
2022-09-27T15:47:39.015Z,12.31
2022-09-27T15:50:29.339Z,12.46
2022-09-27T15:52:59.246Z,12.37
2022-09-27T15:55:32.113Z,12.24
2022-09-27T15:58:08.148Z,12.55
2022-09-27T16:00:37.211Z,12.44
2022-09-27T16:03:06.701Z,12.07
2022-09-27T16:05:36.412Z,12.06
2022-09-27T16:08:07.116Z,12.25
2022-09-27T16:10:42.689Z,12.01
2022-09-27T16:13:12.161Z,12.17
2022-09-27T16:15:42.721Z,12.24
2022-09-27T16:18:13.097Z,12.12
2022-09-27T16:20:43.281Z,11.91
2022-09-27T16:23:13.091Z,11.96
2022-09-27T16:25:42.890Z,11.60
2022-09-27T16:28:12.654Z,11.41
2022-09-27T16:30:42.595Z,11.65
2022-09-27T16:33:12.337Z,11.83
2022-09-27T16:35:42.141Z,11.71
2022-09-27T16:38:13.386Z,11.37
2022-09-27T16:40:43.172Z,11.40
2022-09-27T16:43:13.272Z,11.54
2022-09-27T16:45:43.036Z,11.40
2022-09-27T16:48:13.252Z,11.36
2022-09-27T16:51:00.519Z,11.31
2022-09-27T16:53:30.937Z,11.56
2022-09-27T16:56:01.356Z,11.37
2022-09-27T16:58:31.459Z,11.31
2022-09-27T17:01:01.280Z,11.46
2022-09-27T17:03:31.453Z,11.12
2022-09-27T17:06:04.618Z,11.03
2022-09-27T17:08:37.362Z,11.21
2022-09-27T17:11:06.917Z,11.22
2022-09-27T17:13:36.722Z,11.16
2022-09-27T17:16:08.368Z,11.16
2022-09-27T17:18:41.272Z,11.21
2022-09-27T17:21:11.966Z,11.14
2022-09-27T17:23:41.854Z,11.14
2022-09-27T17:26:20.638Z,11.11
2022-09-27T17:28:50.912Z,11.19
2022-09-27T17:31:20.699Z,10.95
2022-09-27T17:33:56.793Z,11.03
2022-09-27T17:36:26.152Z,11.12
2022-09-27T17:38:56.213Z,11.06
2022-09-27T17:41:27.391Z,11.10
2022-09-27T17:43:59.450Z,11.14
2022-09-27T17:46:35.157Z,10.89
2022-09-27T17:49:23.373Z,10.80
2022-09-27T17:51:54.442Z,10.80
2022-09-27T17:54:27.790Z,10.76
2022-09-27T17:56:57.474Z,10.95
2022-09-27T17:59:27.046Z,10.82
2022-09-27T18:01:57.234Z,10.82
2022-09-27T18:04:26.859Z,10.69
2022-09-27T18:06:57.261Z,10.74
2022-09-27T18:09:27.094Z,10.51
2022-09-27T18:11:56.886Z,10.31
2022-09-27T18:14:29.720Z,10.28
2022-09-27T18:16:59.573Z,10.26
2022-09-27T18:19:29.402Z,10.22
2022-09-27T18:22:00.730Z,10.34
2022-09-27T18:24:31.161Z,10.29
2022-09-27T18:27:00.955Z,10.43
2022-09-27T18:29:30.670Z,10.31
2022-09-27T18:32:02.083Z,10.36
2022-09-27T18:34:31.869Z,10.45
2022-09-27T18:37:01.610Z,10.52
2022-09-27T18:39:31.337Z,10.34
2022-09-27T18:42:01.110Z,10.29
2022-09-27T18:44:30.579Z,10.45
2022-09-27T18:47:00.348Z,10.45
2022-09-27T18:49:33.803Z,10.21
2022-09-27T18:52:02.706Z,10.22
2022-09-27T18:54:32.546Z,10.35
2022-09-27T18:57:02.645Z,10.33
2022-09-27T18:59:32.376Z,10.68
2022-09-27T19:02:02.280Z,10.51
2022-09-27T19:04:32.371Z,10.46
2022-09-27T19:07:03.101Z,10.44
2022-09-27T19:09:32.824Z,10.44
2022-09-27T19:12:03.072Z,10.49
2022-09-27T19:14:32.794Z,10.49
2022-09-27T19:17:02.568Z,10.40
2022-09-27T19:19:32.301Z,10.35
2022-09-27T19:22:02.452Z,10.21
2022-09-27T19:24:32.167Z,10.29
2022-09-27T19:27:01.899Z,10.41
2022-09-27T19:29:32.036Z,10.39
2022-09-27T19:32:02.010Z,10.39
2022-09-27T19:34:31.822Z,10.39
2022-09-27T19:37:01.561Z,10.35
2022-09-27T19:39:31.290Z,10.41
2022-09-27T19:42:01.074Z,10.32
2022-09-27T19:44:30.764Z,10.33
2022-09-27T19:47:00.569Z,10.19
2022-09-27T19:49:30.062Z,10.19
2022-09-27T19:52:00.894Z,10.31
2022-09-27T19:54:30.797Z,10.31
2022-09-27T19:57:00.543Z,10.40
2022-09-27T19:59:30.612Z,10.23
2022-09-27T20:02:00.425Z,10.25
2022-09-27T20:04:29.897Z,10.25
2022-09-27T20:06:59.869Z,10.32
2022-09-27T20:09:29.672Z,10.26
2022-09-27T20:11:59.486Z,10.10
2022-09-27T20:14:29.534Z,10.36
2022-09-27T20:16:59.262Z,10.36
2022-09-27T20:19:29.001Z,10.28
2022-09-27T20:21:58.793Z,10.27
2022-09-27T20:24:28.571Z,10.20
2022-09-27T20:26:59.009Z,10.30
2022-09-27T20:29:28.739Z,9.93
2022-09-27T20:32:22.894Z,10.07
2022-09-27T20:34:29.744Z,10.15
2022-09-27T20:36:59.487Z,10.17
2022-09-27T20:39:29.554Z,10.01
2022-09-27T20:41:59.590Z,9.79
2022-09-27T20:44:29.401Z,9.71
2022-09-27T20:46:59.210Z,9.87
2022-09-27T20:49:28.985Z,9.82
2022-09-27T20:51:58.705Z,9.88
2022-09-27T20:54:28.442Z,9.79
2022-09-27T20:56:58.177Z,9.77
2022-09-27T20:59:27.914Z,9.69
2022-09-27T21:01:57.727Z,9.82
2022-09-27T21:04:27.447Z,9.80
2022-09-27T21:06:58.752Z,9.99
2022-09-27T21:09:28.639Z,9.88
2022-09-27T21:11:58.365Z,9.80
2022-09-27T21:14:27.914Z,9.67
2022-09-27T21:17:01.191Z,9.59
2022-09-27T21:19:29.228Z,9.85
2022-09-27T21:21:58.963Z,9.68
2022-09-27T21:24:28.701Z,9.93
2022-09-27T21:26:58.724Z,9.94
2022-09-27T21:29:28.449Z,9.99
2022-09-27T21:31:58.258Z,9.88
2022-09-27T21:34:27.684Z,9.88
2022-09-27T21:36:57.428Z,9.85
2022-09-27T21:39:27.553Z,9.72
2022-09-27T21:41:57.312Z,9.77
2022-09-27T21:44:26.742Z,9.77
2022-09-27T21:46:56.243Z,9.63
2022-09-27T21:49:26.011Z,9.67
2022-09-27T21:51:55.771Z,9.70
2022-09-27T21:54:25.505Z,9.63
2022-09-27T21:56:55.280Z,9.58
2022-09-27T21:59:25.019Z,9.65
2022-09-27T22:01:54.843Z,9.71
2022-09-27T22:04:24.280Z,9.46
2022-09-27T22:06:54.355Z,9.64
2022-09-27T22:09:24.088Z,9.71
2022-09-27T22:11:53.885Z,9.47
2022-09-27T22:14:23.764Z,9.56
2022-09-27T22:16:53.268Z,9.36
2022-09-27T22:19:23.365Z,9.61
2022-09-27T22:21:53.071Z,9.37
2022-09-27T22:24:22.761Z,9.39
2022-09-27T22:26:53.788Z,9.30
2022-09-27T22:29:23.519Z,9.48
2022-09-27T22:31:53.450Z,9.53
2022-09-27T22:34:24.596Z,9.58
2022-09-27T22:36:54.335Z,9.29
2022-09-27T22:39:24.198Z,9.29
2022-09-27T22:41:53.961Z,9.58
2022-09-27T22:44:24.088Z,9.25
2022-09-27T22:46:53.903Z,9.43
2022-09-27T22:49:24.120Z,9.47
2022-09-27T22:51:53.846Z,9.28
2022-09-27T22:54:23.281Z,9.36
2022-09-27T22:56:54.659Z,9.24
2022-09-27T22:59:27.922Z,9.38
2022-09-27T23:01:57.662Z,9.49
2022-09-27T23:04:27.383Z,9.44
2022-09-27T23:06:57.144Z,9.45
2022-09-27T23:09:26.859Z,9.30
2022-09-27T23:11:56.598Z,9.33
2022-09-27T23:14:26.299Z,9.36
2022-09-27T23:16:56.060Z,9.38
2022-09-27T23:19:26.924Z,9.14
2022-09-27T23:21:57.512Z,9.36
2022-09-27T23:24:27.317Z,9.34
2022-09-27T23:27:14.621Z,9.18
2022-09-27T23:29:45.877Z,9.08
2022-09-27T23:32:15.610Z,9.01
2022-09-27T23:34:45.360Z,9.13
2022-09-27T23:37:15.103Z,9.18
2022-09-27T23:39:44.834Z,9.25
2022-09-27T23:42:14.645Z,9.17
2022-09-27T23:44:44.675Z,8.99
2022-09-27T23:47:14.502Z,8.99
2022-09-27T23:49:44.231Z,8.95
2022-09-27T23:52:14.177Z,8.90
2022-09-27T23:54:44.210Z,8.94
2022-09-27T23:57:13.954Z,8.73
2022-09-27T23:59:43.705Z,8.83
